»·PEaware :: AAL4636 KLAS-KPHX

AAL4636 :: KLAS-KPHX

FLIGHT INFORMATION

Flight Status: Arrived
Operator:
American Airlines
More flights by this operator :: More flights under this callsign
Pilot: Ben F. (13029)
Aircraft: AIRBUS A320
(A320)
More flights by this aircraft type
Origin: KLAS McCarran Intl
United States
Destination: KPHX Phoenix Sky Harbor Intl
United States
More flights between these airports :: More routes between these airports
Route: +PRFUM4 PRFUM WOTRO BRUSR1
File this flight plan on PilotEdge
Remarks: RMK / SIMBRIEF
Altitude:
(Current/Filed)
35,000ft
Speed:
(Current/Filed)
458kts
Departed: 05-Jun-20 11:45 AM
Arrived: 05-Jun-20 12:42 PM
Distance/Time
Traveled:
222nm/0:57
Distance/Time
To Go:
Arrived

Flight Plot

Page will automatically refresh every two minutes.

Flight plan parsing failed; only flown route is shown


Map Options




Map Legend


Flown Route
Filed Route
Departure Airport
Arrival Airport
Navaid (VOR, NDB)
Fix

Horizontal Profiles

Position Reports

Time Latitude Longitude Heading Altitude Ground
Speed
05-Jun-20 11:03 36.079899 -115.140418 57 2120ft 0kts
05-Jun-20 11:04 36.079899 -115.140418 57 2120ft 0kts
05-Jun-20 11:05 36.079899 -115.140418 57 2120ft 0kts
05-Jun-20 11:06 36.079899 -115.140418 57 2120ft 0kts
05-Jun-20 11:07 36.079899 -115.140418 57 2120ft 0kts
05-Jun-20 11:08 36.079899 -115.140418 57 2120ft 0kts
05-Jun-20 11:09 36.079899 -115.140418 57 2120ft 0kts
05-Jun-20 11:10 36.079899 -115.140418 57 2120ft 0kts
05-Jun-20 11:11 36.079899 -115.140418 57 2120ft 0kts
05-Jun-20 11:11 36.079899 -115.140418 57 2120ft 0kts
05-Jun-20 11:13 36.079899 -115.140418 57 2120ft 0kts
05-Jun-20 11:13 36.079899 -115.140418 57 2120ft 0kts
05-Jun-20 11:14 36.079899 -115.140418 57 2120ft 0kts
05-Jun-20 11:16 36.079899 -115.140418 57 2120ft 0kts
05-Jun-20 11:16 36.079899 -115.140418 57 2120ft 0kts
05-Jun-20 11:17 36.079899 -115.140418 57 2120ft 0kts
05-Jun-20 11:18 36.079899 -115.140418 57 2120ft 0kts
05-Jun-20 11:19 36.079899 -115.140418 57 2120ft 0kts
05-Jun-20 11:20 36.079899 -115.140418 57 2120ft 0kts
05-Jun-20 11:21 36.079899 -115.140418 57 2120ft 0kts
05-Jun-20 11:22 36.079899 -115.140418 57 2120ft 0kts
05-Jun-20 11:23 36.079899 -115.140418 57 2120ft 0kts
05-Jun-20 11:24 36.079899 -115.140418 57 2120ft 0kts
05-Jun-20 11:25 36.079899 -115.140418 57 2120ft 0kts
05-Jun-20 11:26 36.079686 -115.140788 33 2120ft 2kts
05-Jun-20 11:27 36.079157 -115.140664 300 2120ft 2kts
05-Jun-20 11:28 36.079103 -115.140360 267 2120ft 0kts
05-Jun-20 11:29 36.079103 -115.140360 267 2120ft 0kts
05-Jun-20 11:30 36.079103 -115.140360 267 2120ft 0kts
05-Jun-20 11:31 36.079103 -115.140361 267 2120ft 0kts
05-Jun-20 11:32 36.078240 -115.142324 265 2120ft 16kts
05-Jun-20 11:33 36.077777 -115.147146 274 2120ft 20kts
05-Jun-20 11:34 36.078021 -115.154188 269 2120ft 18kts
05-Jun-20 11:35 36.078020 -115.157523 270 2120ft 1kts
05-Jun-20 11:36 36.080188 -115.158226 359 2120ft 20kts
05-Jun-20 11:37 36.085699 -115.158251 1 2120ft 20kts
05-Jun-20 11:38 36.090835 -115.155754 25 2120ft 20kts
05-Jun-20 11:39 36.095558 -115.153041 26 2120ft 15kts
05-Jun-20 11:40 36.096921 -115.152958 303 2120ft 0kts
05-Jun-20 11:42 36.096921 -115.152958 303 2120ft 0kts
05-Jun-20 11:43 36.096939 -115.152994 300 2120ft 1kts
05-Jun-20 11:44 36.089205 -115.158927 205 2120ft 133kts
05-Jun-20 11:45 36.045601 -115.184055 206 4816ft 190kts
05-Jun-20 11:46 36.000673 -115.234192 243 7049ft 264kts
05-Jun-20 11:47 35.947762 -115.292007 176 7393ft 282kts
05-Jun-20 11:48 35.873147 -115.260096 140 9525ft 294kts
05-Jun-20 11:49 35.841606 -115.160262 109 12028ft 345kts
05-Jun-20 11:50 35.823654 -115.039770 87 14447ft 379kts
05-Jun-20 11:51 35.833891 -114.906725 87 16718ft 399kts
05-Jun-20 11:52 35.838934 -114.839218 87 17841ft 405kts
05-Jun-20 11:53 35.853883 -114.632417 91 19198ft 409kts
05-Jun-20 11:54 35.809361 -114.509897 126 19201ft 394kts
05-Jun-20 11:55 35.749155 -114.396314 126 19220ft 395kts
05-Jun-20 11:56 35.688843 -114.282925 126 19278ft 394kts
05-Jun-20 11:57 35.628198 -114.169361 127 20567ft 403kts
05-Jun-20 11:58 35.565755 -114.052801 127 22539ft 413kts
05-Jun-20 11:59 35.502423 -113.934923 127 23065ft 413kts
05-Jun-20 12:00 35.438902 -113.817182 127 23069ft 414kts
05-Jun-20 12:01 35.378955 -113.706361 128 22857ft 401kts
05-Jun-20 12:02 35.318314 -113.594686 128 22995ft 393kts
05-Jun-20 12:03 35.256625 -113.481552 129 24518ft 404kts
05-Jun-20 12:04 35.193549 -113.366159 129 26046ft 413kts
05-Jun-20 12:05 35.129041 -113.248092 130 27477ft 421kts
05-Jun-20 12:06 35.063337 -113.127989 130 28789ft 428kts
05-Jun-20 12:07 34.997089 -113.008194 131 29061ft 427kts
05-Jun-20 12:08 34.929992 -112.887294 131 29056ft 434kts
05-Jun-20 12:09 34.879471 -112.796410 131 28166ft 433kts
05-Jun-20 12:10 34.812617 -112.676722 130 27374ft 445kts
05-Jun-20 12:11 34.745300 -112.556280 130 25703ft 420kts
05-Jun-20 12:12 34.672084 -112.450415 146 23838ft 388kts
05-Jun-20 12:13 34.590257 -112.370398 146 21903ft 372kts
05-Jun-20 12:14 34.510212 -112.292288 146 20020ft 367kts
05-Jun-20 12:15 34.429873 -112.225896 169 19578ft 331kts
05-Jun-20 12:16 34.342681 -112.203283 170 18064ft 313kts
05-Jun-20 12:17 34.256317 -112.180987 170 17288ft 325kts
05-Jun-20 12:18 34.168434 -112.158279 170 17181ft 321kts
05-Jun-20 12:19 34.083018 -112.138024 180 17064ft 296kts
05-Jun-20 12:20 34.001367 -112.146563 185 15813ft 295kts
05-Jun-20 12:21 33.920162 -112.155554 185 14008ft 291kts
05-Jun-20 12:22 33.846874 -112.170134 189 12391ft 284kts
05-Jun-20 12:23 33.846874 -112.170134 189 12391ft 284kts
05-Jun-20 12:24 33.700529 -112.201100 189 8780ft 240kts
05-Jun-20 12:25 33.637025 -112.214478 188 7138ft 226kts
05-Jun-20 12:26 33.577061 -112.227152 188 6067ft 208kts
05-Jun-20 12:27 33.516665 -112.240171 188 6041ft 224kts
05-Jun-20 12:28 33.456390 -112.242193 142 5791ft 219kts
05-Jun-20 12:29 33.438405 -112.178669 92 5461ft 191kts
05-Jun-20 12:30 33.439489 -112.162547 88 5371ft 189kts
05-Jun-20 12:31 33.441484 -112.050420 93 3081ft 215kts
05-Jun-20 12:32 33.454979 -111.982899 60 3542ft 183kts
05-Jun-20 12:33 33.480362 -111.927760 60 5966ft 203kts
05-Jun-20 12:34 33.525225 -111.910139 302 6061ft 196kts
05-Jun-20 12:35 33.532176 -111.977685 270 6050ft 216kts
05-Jun-20 12:36 33.537370 -112.051027 271 6043ft 224kts
05-Jun-20 12:37 33.521843 -112.113852 196 5636ft 199kts
05-Jun-20 12:38 33.469982 -112.126958 178 4123ft 185kts
05-Jun-20 12:39 33.440914 -112.084735 91 2764ft 170kts
05-Jun-20 12:40 33.440910 -112.031706 92 1211ft 153kts
05-Jun-20 12:41 33.440690 -112.011125 166 1118ft 6kts
05-Jun-20 12:42 33.439703 -112.005109 100 1118ft 23kts
05-Jun-20 12:43 33.437990 -112.002470 115 1118ft 0kts

Navigation Log

Ident Type
Flight plan parsing failed, navigation log unavailable